createdAt,value
2022-08-22T00:01:15.172Z,100482.47
2022-08-22T00:02:46.654Z,100447.38
2022-08-22T00:02:58.382Z,100456.50
2022-08-22T00:03:49.764Z,100476.09
2022-08-22T00:06:35.673Z,100481.44
2022-08-22T00:09:02.146Z,100480.63
2022-08-22T00:11:31.641Z,100482.25
2022-08-22T00:14:04.268Z,100478.38
2022-08-22T00:16:42.428Z,100481.09
2022-08-22T00:19:08.946Z,100482.38
2022-08-22T00:21:43.233Z,100476.78
2022-08-22T00:24:09.724Z,100479.84
2022-08-22T00:26:45.096Z,100471.09
2022-08-22T00:29:15.520Z,100468.19
2022-08-22T00:31:45.765Z,100472.16
2022-08-22T00:34:15.903Z,100460.81
2022-08-22T00:36:50.972Z,100465.81
2022-08-22T00:39:36.451Z,100465.50
2022-08-22T00:42:31.241Z,100465.63
2022-08-22T00:45:04.638Z,100466.09
2022-08-22T00:47:43.338Z,100463.69
2022-08-22T00:50:16.038Z,100467.53
2022-08-22T00:52:55.036Z,100471.19
2022-08-22T00:55:35.176Z,100471.84
2022-08-22T00:58:19.434Z,100459.31
2022-08-22T01:00:54.596Z,100469.31
2022-08-22T01:03:30.585Z,100467.72
2022-08-22T01:06:04.880Z,100464.53
2022-08-22T01:08:39.550Z,100473.03
2022-08-22T01:11:15.224Z,100475.66
2022-08-22T01:13:53.954Z,100467.31
2022-08-22T01:16:40.360Z,100467.88
2022-08-22T01:19:25.820Z,100461.94
2022-08-22T01:22:11.258Z,100461.50
2022-08-22T01:25:11.509Z,100462.59
2022-08-22T01:27:58.362Z,100464.69
2022-08-22T01:30:46.776Z,100459.47
2022-08-22T01:33:16.695Z,100463.66
2022-08-22T01:36:02.139Z,100458.06
2022-08-22T01:38:37.821Z,100455.81
2022-08-22T01:41:17.260Z,100456.03
2022-08-22T01:43:59.891Z,100452.03
2022-08-22T01:46:33.511Z,100451.13
2022-08-22T01:49:09.125Z,100451.91
2022-08-22T01:51:45.013Z,100455.28
2022-08-22T01:54:34.599Z,100450.03
2022-08-22T01:57:02.867Z,100449.78
2022-08-22T01:59:34.684Z,100446.47
2022-08-22T02:02:25.281Z,100453.84
2022-08-22T02:04:54.968Z,100461.53
2022-08-22T02:07:32.219Z,100450.16
2022-08-22T02:10:08.172Z,100465.44
2022-08-22T02:12:42.853Z,100457.78
2022-08-22T02:15:23.128Z,100457.00
2022-08-22T02:18:03.136Z,100457.78
2022-08-22T02:20:35.391Z,100461.50
2022-08-22T02:23:07.868Z,100455.44
2022-08-22T02:25:55.710Z,100455.91
2022-08-22T02:28:31.094Z,100452.03
2022-08-22T02:31:04.103Z,100450.72
2022-08-22T02:33:50.576Z,100454.91
2022-08-22T02:36:40.410Z,100457.16
2022-08-22T02:39:25.767Z,100450.78
2022-08-22T02:41:59.920Z,100451.59
2022-08-22T02:44:30.175Z,100454.19
2022-08-22T02:47:08.220Z,100455.97
2022-08-22T02:49:34.920Z,100451.97
2022-08-22T02:52:16.876Z,100447.66
2022-08-22T02:54:46.467Z,100447.19
2022-08-22T02:57:21.932Z,100445.28
2022-08-22T03:00:02.172Z,100445.28
2022-08-22T03:02:33.815Z,100440.97
2022-08-22T03:05:16.239Z,100441.16
2022-08-22T03:07:51.059Z,100439.94
2022-08-22T03:10:23.406Z,100445.13
2022-08-22T03:13:02.666Z,100437.75
2022-08-22T03:15:31.988Z,100444.50
2022-08-22T03:17:58.626Z,100445.31
2022-08-22T03:20:40.605Z,100443.25
2022-08-22T03:23:20.858Z,100447.09
2022-08-22T03:26:07.688Z,100447.91
2022-08-22T03:28:59.427Z,100447.75
2022-08-22T03:31:27.725Z,100455.44
2022-08-22T03:34:13.525Z,100451.28
2022-08-22T03:36:45.741Z,100451.00
2022-08-22T03:39:18.567Z,100448.94
2022-08-22T03:42:05.364Z,100456.94
2022-08-22T03:44:50.275Z,100455.81
2022-08-22T03:47:40.882Z,100460.31
2022-08-22T03:50:26.249Z,100461.28
2022-08-22T03:53:19.065Z,100466.25
2022-08-22T03:55:48.758Z,100465.47
2022-08-22T03:58:34.061Z,100468.66
2022-08-22T04:01:19.554Z,100472.66
2022-08-22T04:04:01.371Z,100470.91
2022-08-22T04:06:42.981Z,100467.84
2022-08-22T04:09:35.852Z,100473.63
2022-08-22T04:12:22.180Z,100461.31
2022-08-22T04:14:48.781Z,100468.81
2022-08-22T04:17:15.276Z,100474.44
2022-08-22T04:19:57.041Z,100473.00
2022-08-22T04:22:23.524Z,100473.00
2022-08-22T04:24:52.972Z,100478.09
2022-08-22T04:27:38.376Z,100477.75
2022-08-22T04:30:22.938Z,100478.25
2022-08-22T04:33:06.994Z,100474.91
2022-08-22T04:35:43.020Z,100472.97
2022-08-22T04:38:16.951Z,100480.16
2022-08-22T04:40:46.803Z,100481.44
2022-08-22T04:43:18.756Z,100477.44
2022-08-22T04:45:53.279Z,100482.22
2022-08-22T04:48:19.798Z,100487.06
2022-08-22T04:51:03.088Z,100490.09
2022-08-22T04:53:38.942Z,100496.63
2022-08-22T04:56:27.288Z,100497.75
2022-08-22T04:58:58.604Z,100490.88
2022-08-22T05:01:37.380Z,100489.28
2022-08-22T05:04:24.120Z,100490.09
2022-08-22T05:06:53.739Z,100486.88
2022-08-22T05:09:24.767Z,100491.53
2022-08-22T05:11:54.091Z,100498.38
2022-08-22T05:14:35.258Z,100502.06
2022-08-22T05:17:04.342Z,100496.50
2022-08-22T05:19:34.721Z,100499.53
2022-08-22T05:22:02.125Z,100492.63
2022-08-22T05:24:40.219Z,100497.13
2022-08-22T05:27:11.836Z,100497.75
2022-08-22T05:29:39.684Z,100492.81
2022-08-22T05:32:07.917Z,100495.69
2022-08-22T05:34:37.314Z,100496.19
2022-08-22T05:37:11.963Z,100488.34
2022-08-22T05:39:40.197Z,100491.38
2022-08-22T05:42:12.720Z,100489.16
2022-08-22T05:44:39.359Z,100486.91
2022-08-22T05:47:23.330Z,100495.53
2022-08-22T05:50:04.449Z,100485.63
2022-08-22T05:52:49.924Z,100485.13
2022-08-22T05:55:29.458Z,100490.09
2022-08-22T05:58:14.951Z,100492.00
2022-08-22T06:00:43.219Z,100498.22
2022-08-22T06:03:20.679Z,100497.09
2022-08-22T06:05:51.241Z,100500.63
2022-08-22T06:08:30.133Z,100495.00
2022-08-22T06:11:01.124Z,100497.56
2022-08-22T06:13:43.134Z,100503.00
2022-08-22T06:16:17.126Z,100508.91
2022-08-22T06:18:45.172Z,100507.31
2022-08-22T06:21:13.414Z,100501.84
2022-08-22T06:23:43.985Z,100499.94
2022-08-22T06:26:20.603Z,100499.59
2022-08-22T06:28:55.354Z,100506.59
2022-08-22T06:31:45.071Z,100512.31
2022-08-22T06:34:14.163Z,100517.69
2022-08-22T06:36:43.154Z,100512.50
2022-08-22T06:39:18.837Z,100521.16
2022-08-22T06:41:54.507Z,100520.09
2022-08-22T06:44:23.879Z,100521.16
2022-08-22T06:46:52.353Z,100521.91
2022-08-22T06:49:20.872Z,100515.53
2022-08-22T06:51:48.172Z,100515.31
2022-08-22T06:54:17.942Z,100513.81
2022-08-22T06:56:46.363Z,100519.09
2022-08-22T06:59:14.746Z,100509.97
2022-08-22T07:01:46.609Z,100516.44
2022-08-22T07:04:14.036Z,100527.50
2022-08-22T07:06:43.205Z,100528.53
2022-08-22T07:09:30.831Z,100528.78
2022-08-22T07:11:59.615Z,100536.06
2022-08-22T07:14:28.538Z,100539.97
2022-08-22T07:16:57.159Z,100535.03
2022-08-22T07:19:26.862Z,100534.78
2022-08-22T07:21:53.516Z,100537.44
2022-08-22T07:24:22.528Z,100537.00
2022-08-22T07:26:51.880Z,100545.19
2022-08-22T07:29:41.576Z,100541.88
2022-08-22T07:32:14.502Z,100536.31
2022-08-22T07:34:56.122Z,100533.31
2022-08-22T07:37:42.028Z,100533.16
2022-08-22T07:40:18.929Z,100539.00
2022-08-22T07:42:57.060Z,100548.03
2022-08-22T07:45:23.559Z,100547.28
2022-08-22T07:47:53.212Z,100546.44
2022-08-22T07:50:22.956Z,100540.63
2022-08-22T07:52:50.301Z,100544.81
2022-08-22T07:55:19.159Z,100550.50
2022-08-22T07:57:48.422Z,100545.81
2022-08-22T08:00:18.307Z,100552.72
2022-08-22T08:02:46.721Z,100543.88
2022-08-22T08:05:14.619Z,100545.00
2022-08-22T08:07:43.685Z,100547.38
2022-08-22T08:10:13.908Z,100547.03
2022-08-22T08:12:44.394Z,100549.06
2022-08-22T08:15:25.346Z,100551.69
2022-08-22T08:17:54.710Z,100548.56
2022-08-22T08:20:23.315Z,100544.09
2022-08-22T08:22:50.755Z,100541.91
2022-08-22T08:25:22.773Z,100547.41
2022-08-22T08:28:08.439Z,100543.53
2022-08-22T08:30:44.462Z,100544.34
2022-08-22T08:33:25.547Z,100546.03
2022-08-22T08:36:02.540Z,100542.56
2022-08-22T08:38:32.838Z,100542.41
2022-08-22T08:41:08.568Z,100535.09
2022-08-22T08:43:50.906Z,100537.88
2022-08-22T08:46:20.507Z,100541.63
2022-08-22T08:48:50.155Z,100533.38
2022-08-22T08:51:28.787Z,100533.19
2022-08-22T08:54:09.230Z,100528.63
2022-08-22T08:56:47.397Z,100530.31
2022-08-22T08:59:32.767Z,100528.66
2022-08-22T09:02:08.636Z,100521.72
2022-08-22T09:04:59.041Z,100529.31
2022-08-22T09:07:42.397Z,100521.50
2022-08-22T09:10:23.562Z,100521.72
2022-08-22T09:13:11.143Z,100516.56
2022-08-22T09:15:58.516Z,100518.75
2022-08-22T09:18:50.983Z,100521.28
2022-08-22T09:21:30.786Z,100515.28
2022-08-22T09:24:09.752Z,100514.88
2022-08-22T09:26:47.096Z,100512.44
2022-08-22T09:29:54.654Z,100512.25
2022-08-22T09:32:36.105Z,100510.72
2022-08-22T09:35:22.373Z,100510.88
2022-08-22T09:37:58.483Z,100506.00
2022-08-22T09:40:31.480Z,100498.38
2022-08-22T09:43:05.667Z,100492.91
2022-08-22T09:45:35.516Z,100488.91
2022-08-22T09:48:07.594Z,100479.25
2022-08-22T09:50:34.423Z,100469.28
2022-08-22T09:53:13.882Z,100476.13
2022-08-22T09:55:59.428Z,100462.66
2022-08-22T09:58:41.889Z,100459.81
2022-08-22T10:01:32.801Z,100463.63
2022-08-22T10:04:19.539Z,100464.34
2022-08-22T10:06:46.364Z,100449.44
2022-08-22T10:09:31.200Z,100454.94
2022-08-22T10:11:58.538Z,100443.00
2022-08-22T10:14:28.668Z,100429.44
2022-08-22T10:17:21.602Z,100436.59
2022-08-22T10:20:12.236Z,100417.97
2022-08-22T10:22:47.304Z,100424.22
2022-08-22T10:25:18.503Z,100421.25
2022-08-22T10:28:00.184Z,100415.78
2022-08-22T10:30:36.174Z,100423.41
2022-08-22T10:33:06.843Z,100423.25
2022-08-22T10:35:45.602Z,100411.50
2022-08-22T10:38:18.406Z,100421.47
2022-08-22T10:40:48.360Z,100420.81
2022-08-22T10:43:20.967Z,100422.53
2022-08-22T10:46:03.546Z,100411.09
2022-08-22T10:48:35.571Z,100411.97
2022-08-22T10:51:15.054Z,100404.31
2022-08-22T10:53:54.114Z,100401.94
2022-08-22T10:56:22.668Z,100394.84
2022-08-22T10:59:08.519Z,100391.53
2022-08-22T11:01:51.599Z,100395.19
2022-08-22T11:04:18.363Z,100385.88
2022-08-22T11:06:47.978Z,100384.66
2022-08-22T11:09:28.254Z,100386.22
2022-08-22T11:11:59.519Z,100397.63
2022-08-22T11:14:55.014Z,100377.09
2022-08-22T11:17:46.341Z,100375.50
2022-08-22T11:20:27.033Z,100378.38
2022-08-22T11:22:56.832Z,100371.03
2022-08-22T11:25:58.032Z,100370.28
2022-08-22T11:28:24.617Z,100366.41
2022-08-22T11:30:51.147Z,100362.69
2022-08-22T11:33:46.909Z,100371.16
2022-08-22T11:36:46.674Z,100353.25
2022-08-22T11:39:25.494Z,100363.63
2022-08-22T11:41:59.910Z,100357.69
2022-08-22T11:44:27.628Z,100355.09
2022-08-22T11:46:57.285Z,100359.06
2022-08-22T11:49:43.406Z,100356.16
2022-08-22T11:52:10.015Z,100349.84
2022-08-22T11:55:00.769Z,100343.22
2022-08-22T11:57:30.330Z,100350.34
2022-08-22T12:00:20.882Z,100344.50
2022-08-22T12:03:08.936Z,100346.69
2022-08-22T12:05:55.703Z,100345.97
2022-08-22T12:08:25.276Z,100352.81
2022-08-22T12:10:51.881Z,100348.13
2022-08-22T12:13:34.823Z,100351.97
2022-08-22T12:16:07.924Z,100341.50
2022-08-22T12:18:58.956Z,100357.25
2022-08-22T12:21:28.677Z,100348.69
2022-08-22T12:23:55.741Z,100341.78
2022-08-22T12:26:41.732Z,100347.88
2022-08-22T12:29:28.578Z,100349.81
2022-08-22T12:32:01.620Z,100346.81
2022-08-22T12:34:51.576Z,100336.03
2022-08-22T12:37:21.986Z,100334.56
2022-08-22T12:39:52.189Z,100336.78
2022-08-22T12:42:43.115Z,100341.00
2022-08-22T12:45:31.476Z,100341.03
2022-08-22T12:48:01.068Z,100335.53
2022-08-22T12:50:28.937Z,100328.50
2022-08-22T12:52:58.188Z,100328.50
2022-08-22T12:55:45.741Z,100327.78
2022-08-22T12:58:18.825Z,100321.69
2022-08-22T13:00:47.400Z,100324.16
2022-08-22T13:03:35.397Z,100320.66
2022-08-22T13:06:04.745Z,100312.03
2022-08-22T13:08:37.103Z,100315.22
2022-08-22T13:11:22.762Z,100310.84
2022-08-22T13:13:56.783Z,100307.75
2022-08-22T13:16:24.933Z,100305.44
2022-08-22T13:18:56.945Z,100305.81
2022-08-22T13:21:31.420Z,100300.53
2022-08-22T13:24:11.627Z,100300.00
2022-08-22T13:26:46.517Z,100293.69
2022-08-22T13:29:26.046Z,100300.91
2022-08-22T13:31:58.330Z,100299.50
2022-08-22T13:34:38.486Z,100293.06
2022-08-22T13:37:08.186Z,100292.97
2022-08-22T13:39:38.901Z,100289.06
2022-08-22T13:42:14.186Z,100298.09
2022-08-22T13:44:44.011Z,100294.34
2022-08-22T13:47:14.968Z,100287.81
2022-08-22T13:49:56.230Z,100288.22
2022-08-22T13:52:32.355Z,100289.25
2022-08-22T13:54:59.086Z,100294.31
2022-08-22T13:57:28.406Z,100289.69
2022-08-22T14:00:29.327Z,100287.00
2022-08-22T14:03:05.550Z,100284.44
2022-08-22T14:05:47.072Z,100292.50
2022-08-22T14:08:33.976Z,100284.94
2022-08-22T14:11:17.350Z,100283.59
2022-08-22T14:13:46.977Z,100276.41
2022-08-22T14:16:24.872Z,100266.34
2022-08-22T14:18:59.209Z,100267.78
2022-08-22T14:21:40.535Z,100262.41
2022-08-22T14:24:47.982Z,100272.31
2022-08-22T14:27:30.546Z,100265.13
2022-08-22T14:30:01.306Z,100269.00
2022-08-22T14:32:36.104Z,100260.94
2022-08-22T14:35:35.049Z,100259.56
2022-08-22T14:38:30.018Z,100267.41
2022-08-22T14:41:05.754Z,100262.22
2022-08-22T14:43:51.233Z,100250.94
2022-08-22T14:46:46.234Z,100252.09
2022-08-22T14:49:19.055Z,100251.09
2022-08-22T14:51:51.119Z,100246.28
2022-08-22T14:54:22.250Z,100245.22
2022-08-22T14:56:50.341Z,100248.75
2022-08-22T14:59:54.715Z,100245.31
2022-08-22T15:02:44.639Z,100237.06
2022-08-22T15:05:14.651Z,100242.72
2022-08-22T15:07:52.505Z,100241.56
2022-08-22T15:10:23.958Z,100237.56
2022-08-22T15:12:53.846Z,100234.03
2022-08-22T15:15:49.519Z,100232.25
2022-08-22T15:18:28.002Z,100234.00
2022-08-22T15:21:06.895Z,100237.03
2022-08-22T15:23:45.347Z,100225.94
2022-08-22T15:26:24.920Z,100233.06
2022-08-22T15:29:07.141Z,100225.94
2022-08-22T15:31:34.362Z,100224.47
2022-08-22T15:34:13.018Z,100235.94
2022-08-22T15:37:16.401Z,100233.22
2022-08-22T15:40:21.914Z,100232.91
2022-08-22T15:42:51.471Z,100230.03
2022-08-22T15:45:22.881Z,100232.88
2022-08-22T15:47:55.172Z,100232.88
2022-08-22T15:50:33.696Z,100227.78
2022-08-22T15:53:06.614Z,100225.44
2022-08-22T15:55:34.700Z,100221.13
2022-08-22T15:58:12.933Z,100223.13
2022-08-22T16:00:43.715Z,100216.09
2022-08-22T16:03:26.453Z,100225.66
2022-08-22T16:05:58.021Z,100228.91
2022-08-22T16:08:27.518Z,100225.84
2022-08-22T16:11:16.094Z,100223.94
2022-08-22T16:13:47.017Z,100230.28
2022-08-22T16:16:33.969Z,100224.38
2022-08-22T16:19:03.635Z,100221.25
2022-08-22T16:21:30.279Z,100216.13
2022-08-22T16:23:56.757Z,100217.72
2022-08-22T16:26:29.375Z,100218.88
2022-08-22T16:28:59.315Z,100222.03
2022-08-22T16:31:37.862Z,100218.44
2022-08-22T16:34:20.377Z,100218.03
2022-08-22T16:36:47.282Z,100221.19
2022-08-22T16:39:32.530Z,100220.38
2022-08-22T16:42:14.955Z,100220.38
2022-08-22T16:44:47.466Z,100218.81
2022-08-22T16:47:16.903Z,100214.09
2022-08-22T16:49:49.375Z,100214.13
2022-08-22T16:52:25.196Z,100219.66
2022-08-22T16:54:53.127Z,100220.47
2022-08-22T16:57:44.474Z,100218.16
2022-08-22T17:00:32.931Z,100218.13
2022-08-22T17:03:06.749Z,100221.28
2022-08-22T17:05:36.533Z,100221.28
2022-08-22T17:08:22.026Z,100220.47
2022-08-22T17:10:58.165Z,100224.84
2022-08-22T17:13:32.988Z,100227.56
2022-08-22T17:16:07.042Z,100222.00
2022-08-22T17:18:50.122Z,100233.03
2022-08-22T17:21:28.897Z,100227.13
2022-08-22T17:23:55.378Z,100229.09
2022-08-22T17:26:21.879Z,100223.56
2022-08-22T17:28:51.571Z,100227.47
2022-08-22T17:31:27.775Z,100232.97
2022-08-22T17:34:02.552Z,100226.25
2022-08-22T17:36:38.458Z,100237.66
2022-08-22T17:39:19.441Z,100236.47
2022-08-22T17:41:55.339Z,100240.03
2022-08-22T17:44:28.508Z,100234.94
2022-08-22T17:47:02.283Z,100240.78
2022-08-22T17:49:49.263Z,100236.06
2022-08-22T17:52:33.734Z,100239.94
2022-08-22T17:55:18.261Z,100237.56
2022-08-22T17:57:51.762Z,100242.66
2022-08-22T18:00:33.264Z,100256.44
2022-08-22T18:03:05.944Z,100243.81
2022-08-22T18:05:35.431Z,100250.13
2022-08-22T18:11:24.572Z,100256.41
2022-08-22T18:13:55.019Z,100259.94
2022-08-22T18:16:29.422Z,100258.72
2022-08-22T18:19:01.957Z,100258.72
2022-08-22T18:21:34.416Z,100259.47
2022-08-22T18:24:03.515Z,100258.66
2022-08-22T18:26:33.866Z,100265.72
2022-08-22T18:29:20.433Z,100260.94
2022-08-22T18:32:05.219Z,100266.34
2022-08-22T18:35:02.536Z,100270.19
2022-08-22T18:37:35.539Z,100265.38
2022-08-22T18:40:08.469Z,100266.13
2022-08-22T18:43:08.679Z,100262.13
2022-08-22T18:45:47.573Z,100266.78
2022-08-22T18:48:28.030Z,100269.91
2022-08-22T18:51:12.869Z,100278.44
2022-08-22T18:53:44.854Z,100276.06
2022-08-22T18:56:19.362Z,100272.06
2022-08-22T18:59:13.623Z,100279.06
2022-08-22T19:02:03.558Z,100277.81
2022-08-22T19:04:48.768Z,100281.34
2022-08-22T19:07:31.131Z,100284.41
2022-08-22T19:10:17.402Z,100286.34
2022-08-22T19:13:00.414Z,100291.00
2022-08-22T19:15:27.458Z,100290.94
2022-08-22T19:17:59.515Z,100292.44
2022-08-22T19:20:47.107Z,100292.75
2022-08-22T19:23:31.967Z,100293.47
2022-08-22T19:26:17.686Z,100288.75
2022-08-22T19:28:44.265Z,100303.97
2022-08-22T19:31:25.882Z,100311.41
2022-08-22T19:34:11.165Z,100316.06
2022-08-22T19:36:37.725Z,100310.84
2022-08-22T19:39:24.786Z,100315.94
2022-08-22T19:41:53.678Z,100319.03
2022-08-22T19:44:20.261Z,100322.06
2022-08-22T19:47:07.209Z,100323.63
2022-08-22T19:49:38.668Z,100324.38
2022-08-22T19:52:08.207Z,100323.53
2022-08-22T19:54:41.643Z,100331.72
2022-08-22T19:57:18.524Z,100328.13
2022-08-22T19:59:53.869Z,100331.91
2022-08-22T20:02:39.225Z,100327.84
2022-08-22T20:05:18.194Z,100327.00
2022-08-22T20:08:01.310Z,100325.44
2022-08-22T20:10:47.012Z,100330.16
2022-08-22T20:13:24.251Z,100335.16
2022-08-22T20:16:03.095Z,100328.25
2022-08-22T20:19:08.584Z,100325.81
2022-08-22T20:21:41.165Z,100336.38
2022-08-22T20:24:11.732Z,100332.03
2022-08-22T20:26:52.098Z,100335.50
2022-08-22T20:29:32.341Z,100325.28
2022-08-22T20:31:59.142Z,100330.69
2022-08-22T20:34:28.456Z,100330.63
2022-08-22T20:37:22.649Z,100331.66
2022-08-22T20:39:59.174Z,100337.00
2022-08-22T20:42:30.650Z,100336.44
2022-08-22T20:44:58.981Z,100336.28
2022-08-22T20:47:32.321Z,100338.16
2022-08-22T20:50:10.341Z,100334.91
2022-08-22T20:52:38.508Z,100328.59
2022-08-22T20:55:08.296Z,100330.06
2022-08-22T20:57:43.394Z,100335.50
2022-08-22T21:00:12.483Z,100347.94
2022-08-22T21:02:42.256Z,100343.16
2022-08-22T21:05:18.556Z,100337.38
2022-08-22T21:07:46.499Z,100346.75
2022-08-22T21:10:46.933Z,100345.13
2022-08-22T21:13:22.981Z,100347.28
2022-08-22T21:15:49.799Z,100348.81
2022-08-22T21:18:36.824Z,100351.13
2022-08-22T21:21:08.066Z,100352.19
2022-08-22T21:23:45.484Z,100345.41
2022-08-22T21:26:25.759Z,100353.69
2022-08-22T21:28:57.493Z,100354.84
2022-08-22T21:34:12.120Z,100356.56
2022-08-22T21:36:38.856Z,100358.44
2022-08-22T21:39:12.086Z,100361.44
2022-08-22T21:41:41.545Z,100360.56
2022-08-22T21:44:28.602Z,100363.28
2022-08-22T21:46:55.583Z,100366.66
2022-08-22T21:49:35.147Z,100364.66
2022-08-22T21:52:02.028Z,100367.38
2022-08-22T21:54:32.012Z,100368.88
2022-08-22T21:57:16.923Z,100354.03
2022-08-22T21:59:51.169Z,100361.81
2022-08-22T22:02:25.076Z,100363.38
2022-08-22T22:04:54.136Z,100359.06
2022-08-22T22:07:20.869Z,100369.16
2022-08-22T22:09:54.706Z,100369.59
2022-08-22T22:12:22.377Z,100369.59
2022-08-22T22:14:49.441Z,100375.06
2022-08-22T22:17:16.761Z,100376.66
2022-08-22T22:19:43.773Z,100374.34
2022-08-22T22:22:10.676Z,100382.94
2022-08-22T22:24:37.447Z,100386.28
2022-08-22T22:27:04.596Z,100386.09
2022-08-22T22:29:32.285Z,100388.81
2022-08-22T22:31:59.564Z,100386.38
2022-08-22T22:34:26.128Z,100385.47
2022-08-22T22:36:53.621Z,100388.56
2022-08-22T22:39:20.184Z,100386.50
2022-08-22T22:41:46.725Z,100385.28
2022-08-22T22:44:13.274Z,100396.22
2022-08-22T22:46:39.858Z,100391.03
2022-08-22T22:49:06.445Z,100398.88
2022-08-22T22:51:33.158Z,100394.22
2022-08-22T22:53:59.934Z,100394.56
2022-08-22T22:56:27.485Z,100403.13
2022-08-22T22:58:57.429Z,100406.56
2022-08-22T23:01:28.006Z,100404.19
2022-08-22T23:03:55.962Z,100408.75
2022-08-22T23:06:23.882Z,100406.81
2022-08-22T23:08:50.584Z,100406.03
2022-08-22T23:11:35.670Z,100407.41
2022-08-22T23:14:02.766Z,100411.22
2022-08-22T23:16:32.928Z,100411.94
2022-08-22T23:19:07.115Z,100418.88
2022-08-22T23:21:33.957Z,100423.25
2022-08-22T23:24:00.850Z,100427.81
2022-08-22T23:26:28.166Z,100425.41
2022-08-22T23:28:54.897Z,100424.97
2022-08-22T23:31:32.446Z,100418.25
2022-08-22T23:34:04.532Z,100426.34
2022-08-22T23:36:31.380Z,100433.66
2022-08-22T23:38:57.958Z,100431.28
2022-08-22T23:41:24.731Z,100429.34
2022-08-22T23:43:52.331Z,100433.31
2022-08-22T23:46:20.008Z,100438.34
2022-08-22T23:48:46.642Z,100425.50
2022-08-22T23:51:14.255Z,100433.72
2022-08-22T23:53:41.876Z,100440.91
2022-08-22T23:56:19.887Z,100434.19
2022-08-22T23:58:47.039Z,100433.03
